Weather at Poprad-Tatry Airport

Public forecast

Using degrees Celsius for public forecast. Weather courtesy of forecast.io.

Current aviation weather report (METAR) for Poprad-Tatry Airport

2024/05/21 07:00 (retrieved 21 minutes ago)

LZTT 210700Z 10006KT 060V130 9999 FEW005 16/12 Q1015 NOSIG

Aviation forecast (TAF) for Poprad-Tatry Airport

2024/05/21 06:16 (retrieved 1 hour ago)

TAF LZTT 210515Z 2106/2206 24004KT 9999 FEW040 TEMPO 2106/2107 2000 BCFG SCT002 BECMG 2107/2109 10008KT TEMPO 2112/2206 TSRA SCT027CB BKN035 BECMG 2116/2118 36006KT